Time;durP1;ratioP1;P1;durP2;ratioP2;P2;SDS_P1;SDS_P2;PMS_P1;PMS_P2;Temp;Humidity;BMP_temperature;BMP_pressure;BME280_temperature;BME280_humidity;BME280_pressure;Samples;Min_cycle;Max_cycle;Signal;HPM_P1;HPM_P2
2023/05/10 00:00:17;;;;;;;17.50;16.00;;;16.70;99.90;;;;;;4960441;29;20439;-72
2023/05/10 00:02:47;;;;;;;19.37;17.77;;;16.60;99.90;;;;;;4958143;29;20501;-72
2023/05/10 00:05:16;;;;;;;18.50;16.90;;;16.60;99.90;;;;;;4955956;29;20441;-72
2023/05/10 00:07:44;;;;;;;18.83;17.23;;;16.60;99.90;;;;;;4955568;29;20922;-72
2023/05/10 00:10:12;;;;;;;19.63;18.03;;;16.60;99.90;;;;;;4956609;29;20454;-72
2023/05/10 00:12:41;;;;;;;19.23;17.53;;;16.60;99.90;;;;;;4956847;28;20466;-72
2023/05/10 00:15:10;;;;;;;18.27;16.67;;;16.60;99.90;;;;;;4956717;29;20492;-72
2023/05/10 00:17:38;;;;;;;20.97;19.17;;;16.60;99.90;;;;;;4956563;29;20439;-71
2023/05/10 00:20:09;;;;;;;17.53;16.03;;;16.50;99.90;;;;;;4956326;29;20425;-72
2023/05/10 00:22:37;;;;;;;18.97;17.33;;;16.60;99.90;;;;;;4956522;29;20401;-72
2023/05/10 00:25:06;;;;;;;17.87;16.33;;;16.60;99.90;;;;;;4954887;29;20472;-72
2023/05/10 00:27:34;;;;;;;20.17;18.37;;;16.50;99.90;;;;;;4956514;28;20530;-72
2023/05/10 00:30:02;;;;;;;19.93;18.23;;;16.50;99.90;;;;;;4956322;29;20453;-72
2023/05/10 00:32:30;;;;;;;19.80;18.20;;;16.50;99.90;;;;;;4954872;29;20572;-72
2023/05/10 00:34:59;;;;;;;19.43;17.60;;;16.50;99.90;;;;;;4955899;29;20445;-72
2023/05/10 00:37:29;;;;;;;19.07;17.37;;;16.50;99.90;;;;;;4954655;29;20453;-72
2023/05/10 00:39:58;;;;;;;20.67;18.87;;;16.40;99.90;;;;;;4954869;29;20413;-72
2023/05/10 00:42:27;;;;;;;20.17;18.47;;;16.40;99.90;;;;;;4954954;29;20504;-72
2023/05/10 00:44:56;;;;;;;18.70;17.10;;;16.40;99.90;;;;;;4954352;29;20455;-72
2023/05/10 00:47:24;;;;;;;21.30;19.40;;;16.40;99.90;;;;;;4955752;29;20434;-72
2023/05/10 00:49:53;;;;;;;21.13;19.33;;;16.40;99.90;;;;;;4955700;29;20956;-72
2023/05/10 00:52:23;;;;;;;21.70;19.70;;;16.40;99.90;;;;;;4954590;29;20950;-72
2023/05/10 00:54:53;;;;;;;21.93;19.97;;;16.40;99.90;;;;;;4955941;29;20444;-72
2023/05/10 00:57:22;;;;;;;21.70;19.80;;;16.40;99.90;;;;;;4956413;29;20749;-72
2023/05/10 00:59:50;;;;;;;21.23;19.33;;;16.40;99.90;;;;;;4954697;29;20450;-72
2023/05/10 01:02:19;;;;;;;20.30;18.60;;;16.40;99.90;;;;;;4954468;29;20422;-72
2023/05/10 01:04:47;;;;;;;20.33;18.70;;;16.30;99.90;;;;;;4955667;29;20488;-72
2023/05/10 01:07:15;;;;;;;17.53;16.10;;;16.30;99.90;;;;;;4954292;29;20420;-72
2023/05/10 01:09:43;;;;;;;18.63;17.00;;;16.30;99.90;;;;;;4955668;28;20451;-72
2023/05/10 01:12:13;;;;;;;17.10;15.70;;;16.30;99.90;;;;;;4954370;29;20493;-72
2023/05/10 01:14:41;;;;;;;16.50;15.10;;;16.30;99.90;;;;;;4954517;29;20544;-72
2023/05/10 01:17:12;;;;;;;16.20;14.80;;;16.20;99.90;;;;;;4954109;29;20477;-72
2023/05/10 01:19:40;;;;;;;14.37;13.07;;;16.20;99.90;;;;;;4955955;29;20449;-72
2023/05/10 01:22:27;;;;;;;13.83;12.53;;;16.10;99.90;;;;;;4954312;29;20424;-72
2023/05/10 01:25:16;;;;;;;14.67;13.43;;;16.10;99.90;;;;;;4953057;28;20841;-71
2023/05/10 01:28:24;;;;;;;15.73;14.17;;;16.00;99.90;;;;;;4954381;29;20485;-73
2023/05/10 01:31:08;;;;;;;15.90;14.60;;;15.90;99.90;;;;;;4954693;29;20450;-73
2023/05/10 01:33:43;;;;;;;14.47;13.07;;;15.90;99.90;;;;;;4955846;28;20427;-73
2023/05/10 01:36:25;;;;;;;14.17;12.97;;;15.80;99.90;;;;;;4956083;29;20794;-72
2023/05/10 01:38:58;;;;;;;15.03;13.77;;;15.80;99.90;;;;;;4954256;29;20915;-72
2023/05/10 01:41:37;;;;;;;13.70;12.53;;;15.80;99.90;;;;;;4955651;29;20408;-72
2023/05/10 01:44:18;;;;;;;15.10;13.80;;;15.70;99.90;;;;;;4953822;29;20469;-72
2023/05/10 01:46:52;;;;;;;14.17;12.97;;;15.70;99.90;;;;;;4954867;29;20742;-72
2023/05/10 01:49:24;;;;;;;13.63;12.50;;;15.60;99.90;;;;;;4955282;28;20427;-72
2023/05/10 01:51:55;;;;;;;12.27;11.27;;;15.60;99.90;;;;;;4954283;29;20451;-73
2023/05/10 01:54:25;;;;;;;12.50;11.50;;;15.50;99.90;;;;;;4953907;29;20449;-72
2023/05/10 01:56:58;;;;;;;11.87;10.77;;;15.50;99.90;;;;;;4955443;29;20828;-72
2023/05/10 01:59:31;;;;;;;12.50;11.50;;;15.50;99.90;;;;;;4953612;29;20445;-73
2023/05/10 02:02:02;;;;;;;12.00;10.80;;;15.40;99.90;;;;;;4953864;29;20462;-72
2023/05/10 02:04:32;;;;;;;12.30;11.10;;;15.40;99.90;;;;;;4955014;29;21015;-72
2023/05/10 02:07:01;;;;;;;11.60;10.50;;;15.30;99.90;;;;;;4953679;29;20425;-72
2023/05/10 02:09:32;;;;;;;10.90;9.90;;;15.30;99.90;;;;;;4953344;29;20509;-72
2023/05/10 02:12:05;;;;;;;10.07;9.20;;;15.20;99.90;;;;;;4953733;29;20847;-72
2023/05/10 02:14:37;;;;;;;10.03;8.57;;;15.10;99.90;;;;;;4953308;29;20470;-72
2023/05/10 02:17:06;;;;;;;10.00;9.10;;;15.10;99.90;;;;;;4954520;29;20576;-72
2023/05/10 02:19:39;;;;;;;10.80;9.80;;;15.00;99.90;;;;;;4954790;29;20474;-72
2023/05/10 02:22:09;;;;;;;11.47;10.40;;;15.00;99.90;;;;;;4954495;28;20438;-72
2023/05/10 02:24:38;;;;;;;10.03;9.13;;;15.00;99.90;;;;;;4953053;29;20470;-72
2023/05/10 02:27:07;;;;;;;11.83;9.60;;;14.90;99.90;;;;;;4954837;29;20932;-72
2023/05/10 02:29:37;;;;;;;9.70;8.90;;;14.90;99.90;;;;;;4953173;29;20447;-72
2023/05/10 02:32:06;;;;;;;11.23;8.93;;;14.80;99.90;;;;;;4953320;29;20829;-72
2023/05/10 02:34:36;;;;;;;10.77;9.60;;;14.80;99.90;;;;;;4954965;28;20521;-72
2023/05/10 02:37:05;;;;;;;9.60;8.70;;;14.80;99.90;;;;;;4956534;29;20474;-72
2023/05/10 02:39:34;;;;;;;11.33;9.67;;;14.70;99.90;;;;;;4958724;29;20409;-72
2023/05/10 02:42:05;;;;;;;9.20;8.23;;;14.70;99.90;;;;;;4956647;29;20435;-72
2023/05/10 02:44:34;;;;;;;9.60;8.70;;;14.70;99.90;;;;;;4957661;29;20476;-72
2023/05/10 02:47:03;;;;;;;10.60;9.60;;;14.60;99.90;;;;;;4956558;29;21023;-72
2023/05/10 02:49:31;;;;;;;12.73;9.60;;;14.60;99.90;;;;;;4956565;29;20447;-72
2023/05/10 02:52:06;;;;;;;10.13;9.13;;;14.60;99.90;;;;;;4957733;29;20438;-72
2023/05/10 02:54:40;;;;;;;9.57;8.70;;;14.50;99.90;;;;;;4956372;29;20444;-72
2023/05/10 02:57:11;;;;;;;10.60;9.50;;;14.50;99.90;;;;;;4956338;29;20470;-72
2023/05/10 02:59:39;;;;;;;10.50;9.60;;;14.50;99.90;;;;;;4957874;29;20993;-72
2023/05/10 03:02:08;;;;;;;10.50;9.47;;;14.50;99.90;;;;;;4956240;29;20446;-72
2023/05/10 03:04:36;;;;;;;10.37;9.37;;;14.50;99.90;;;;;;4956120;29;20536;-72
2023/05/10 03:07:06;;;;;;;10.73;9.73;;;14.40;99.90;;;;;;4956068;29;20451;-72
2023/05/10 03:09:34;;;;;;;12.93;11.60;;;14.40;99.90;;;;;;4957275;29;20409;-72
2023/05/10 03:12:08;;;;;;;10.57;9.60;;;14.40;99.90;;;;;;4957490;29;20424;-72
2023/05/10 03:14:48;;;;;;;12.53;11.43;;;14.40;99.90;;;;;;4955971;29;20463;-72
2023/05/10 03:17:23;;;;;;;10.73;9.73;;;14.30;99.90;;;;;;4957084;29;20441;-72
2023/05/10 03:19:55;;;;;;;11.30;10.17;;;14.30;99.90;;;;;;4955927;29;20446;-71
2023/05/10 03:22:31;;;;;;;10.90;10.00;;;14.30;99.90;;;;;;4956456;29;20477;-71
2023/05/10 03:25:03;;;;;;;10.67;9.77;;;14.20;99.90;;;;;;4956315;29;20476;-71
2023/05/10 03:27:33;;;;;;;10.83;9.83;;;14.20;99.90;;;;;;4956184;29;20443;-71
2023/05/10 03:30:03;;;;;;;11.37;10.07;;;14.20;99.90;;;;;;4956607;29;20465;-71
2023/05/10 03:32:34;;;;;;;11.40;10.30;;;14.10;99.90;;;;;;4958520;29;20480;-71
2023/05/10 03:35:07;;;;;;;12.20;10.90;;;14.10;99.90;;;;;;4959182;29;21084;-71
2023/05/10 03:37:37;;;;;;;9.80;8.80;;;14.10;99.90;;;;;;4956757;29;20466;-71
2023/05/10 03:40:07;;;;;;;10.37;9.37;;;14.10;99.90;;;;;;4956176;29;20501;-71
2023/05/10 03:42:38;;;;;;;10.03;9.13;;;14.00;99.90;;;;;;4955888;29;20506;-71
2023/05/10 03:45:07;;;;;;;10.40;9.40;;;14.00;99.90;;;;;;4955564;29;20483;-71
2023/05/10 03:47:35;;;;;;;10.97;9.87;;;14.00;99.90;;;;;;4954635;28;20458;-71
2023/05/10 03:50:05;;;;;;;11.50;10.40;;;14.00;99.90;;;;;;4955825;29;20795;-71
2023/05/10 03:52:33;;;;;;;11.13;10.03;;;13.90;99.90;;;;;;4955137;29;20454;-71
2023/05/10 03:55:03;;;;;;;11.10;10.10;;;13.90;99.90;;;;;;4957226;29;20972;-71
2023/05/10 03:57:31;;;;;;;11.90;10.90;;;13.90;99.90;;;;;;4956611;28;20494;-71
2023/05/10 04:00:00;;;;;;;10.70;9.63;;;13.90;99.90;;;;;;4955846;29;20446;-71
2023/05/10 04:02:29;;;;;;;11.40;10.40;;;13.90;99.90;;;;;;4958345;29;20474;-71
2023/05/10 04:04:58;;;;;;;11.47;10.33;;;13.80;99.90;;;;;;4958260;29;20466;-71
2023/05/10 04:07:26;;;;;;;12.17;11.10;;;13.80;99.90;;;;;;4956250;29;20446;-71
2023/05/10 04:09:54;;;;;;;10.90;9.90;;;13.80;99.90;;;;;;4955544;29;20454;-71
2023/05/10 04:12:24;;;;;;;10.50;9.60;;;13.80;99.90;;;;;;4955194;29;20821;-71
2023/05/10 04:14:52;;;;;;;15.93;14.43;;;13.80;99.90;;;;;;4954990;29;20470;-71
2023/05/10 04:17:21;;;;;;;13.63;12.33;;;13.80;99.90;;;;;;4956074;29;20493;-71
2023/05/10 04:19:49;;;;;;;12.43;11.23;;;13.70;99.90;;;;;;4957117;29;20450;-71
2023/05/10 04:22:17;;;;;;;16.07;14.50;;;13.70;99.90;;;;;;4954814;29;20447;-71
2023/05/10 04:24:45;;;;;;;13.10;12.00;;;13.70;99.90;;;;;;4955903;29;20458;-71
2023/05/10 04:27:13;;;;;;;11.50;10.50;;;13.70;99.90;;;;;;4956256;29;20443;-71
2023/05/10 04:29:42;;;;;;;11.07;10.07;;;13.70;99.90;;;;;;4954631;29;20461;-71
2023/05/10 04:32:11;;;;;;;12.40;11.10;;;13.60;99.90;;;;;;4954676;29;20447;-71
2023/05/10 04:34:39;;;;;;;12.60;10.30;;;13.60;99.90;;;;;;4956052;28;20545;-72
2023/05/10 04:37:07;;;;;;;12.00;10.80;;;13.60;99.90;;;;;;4955660;29;20987;-71
2023/05/10 04:39:36;;;;;;;12.17;11.07;;;13.60;99.90;;;;;;4954482;29;20446;-71
2023/05/10 04:42:05;;;;;;;12.30;11.17;;;13.60;99.90;;;;;;4955790;29;20529;-71
2023/05/10 04:44:33;;;;;;;19.30;17.40;;;13.50;99.90;;;;;;4954400;29;20516;-72
2023/05/10 04:47:03;;;;;;;15.00;13.60;;;13.50;99.90;;;;;;4955845;29;20497;-72
2023/05/10 04:49:31;;;;;;;13.20;12.00;;;13.50;99.90;;;;;;4955530;29;20525;-72
2023/05/10 04:51:59;;;;;;;13.23;11.97;;;13.50;99.90;;;;;;4956130;29;20439;-72
2023/05/10 04:54:27;;;;;;;12.30;11.23;;;13.50;99.90;;;;;;4955756;29;20462;-72
2023/05/10 04:56:55;;;;;;;13.10;11.90;;;13.40;99.90;;;;;;4955434;29;20450;-72
2023/05/10 04:59:23;;;;;;;13.77;12.57;;;13.50;99.90;;;;;;4953900;28;20461;-72
2023/05/10 05:01:51;;;;;;;16.07;14.77;;;13.40;99.90;;;;;;4955929;29;20446;-72
2023/05/10 05:04:22;;;;;;;16.30;14.90;;;13.40;99.90;;;;;;4955555;29;20480;-72
2023/05/10 05:06:50;;;;;;;13.77;12.57;;;13.40;99.90;;;;;;4955495;28;20427;-71
2023/05/10 05:09:20;;;;;;;15.20;13.87;;;13.40;99.90;;;;;;4953970;29;20435;-72
2023/05/10 05:11:49;;;;;;;13.90;12.70;;;13.40;99.90;;;;;;4955252;29;20497;-71
2023/05/10 05:14:17;;;;;;;14.70;13.40;;;13.40;99.90;;;;;;4955230;29;20545;-72
2023/05/10 05:16:45;;;;;;;14.80;13.50;;;13.40;99.90;;;;;;4955167;29;20463;-72
2023/05/10 05:19:13;;;;;;;14.60;13.47;;;13.40;99.90;;;;;;4955112;29;20984;-72
2023/05/10 05:21:43;;;;;;;14.30;13.17;;;13.40;99.90;;;;;;4955116;29;20450;-72
2023/05/10 05:24:12;;;;;;;15.27;13.93;;;13.40;99.90;;;;;;4955484;28;20497;-73
2023/05/10 05:26:40;;;;;;;15.17;13.87;;;13.40;99.90;;;;;;4955053;28;20450;-72
2023/05/10 05:29:08;;;;;;;18.70;17.20;;;13.50;99.90;;;;;;4954119;29;20456;-72
2023/05/10 05:31:36;;;;;;;15.47;14.07;;;13.50;99.90;;;;;;4955527;28;20450;-72
2023/05/10 05:34:04;;;;;;;15.73;14.33;;;13.50;99.90;;;;;;4954928;29;20475;-72
2023/05/10 05:36:32;;;;;;;15.80;14.50;;;13.50;99.90;;;;;;4954930;29;20434;-72
2023/05/10 05:39:05;;;;;;;15.63;14.30;;;13.50;99.90;;;;;;4954930;29;20493;-72
2023/05/10 05:41:33;;;;;;;16.00;14.70;;;13.50;99.90;;;;;;4954992;28;20936;-72
2023/05/10 05:44:01;;;;;;;18.50;16.03;;;13.50;99.90;;;;;;4954775;29;20465;-72
2023/05/10 05:46:29;;;;;;;15.50;14.23;;;13.50;99.90;;;;;;4954887;29;20498;-72
2023/05/10 05:48:57;;;;;;;16.37;14.97;;;13.60;99.90;;;;;;4954814;29;21008;-72
2023/05/10 05:51:25;;;;;;;17.00;15.60;;;13.60;99.90;;;;;;4954866;29;20949;-72
2023/05/10 05:53:53;;;;;;;16.50;15.13;;;13.60;99.90;;;;;;4954981;29;20808;-72
2023/05/10 05:56:24;;;;;;;16.10;14.77;;;13.60;99.90;;;;;;4954863;28;20822;-72
2023/05/10 05:58:52;;;;;;;16.50;15.10;;;13.60;99.90;;;;;;4955027;29;20463;-72
2023/05/10 06:01:21;;;;;;;17.17;15.70;;;13.60;99.90;;;;;;4954989;29;20438;-72
2023/05/10 06:03:49;;;;;;;17.27;15.77;;;13.60;99.90;;;;;;4954757;28;20445;-72
2023/05/10 06:06:20;;;;;;;16.77;15.17;;;13.60;99.90;;;;;;4954711;28;20901;-72
2023/05/10 06:08:48;;;;;;;17.27;15.87;;;13.60;99.90;;;;;;4953367;29;21019;-72
2023/05/10 06:11:16;;;;;;;16.83;15.33;;;13.60;99.90;;;;;;4957955;28;20443;-72
2023/05/10 06:13:45;;;;;;;17.30;15.77;;;13.70;99.90;;;;;;4958546;28;20446;-72
2023/05/10 06:16:14;;;;;;;16.10;14.80;;;13.70;99.90;;;;;;4958607;28;20434;-72
2023/05/10 06:18:42;;;;;;;14.53;13.23;;;13.70;99.90;;;;;;4958545;29;20466;-72
2023/05/10 06:21:10;;;;;;;14.07;12.97;;;13.70;99.90;;;;;;4957068;29;20465;-72
2023/05/10 06:23:38;;;;;;;12.57;11.37;;;13.80;99.90;;;;;;4958501;29;20999;-72
2023/05/10 06:26:06;;;;;;;9.37;8.47;;;13.80;99.90;;;;;;4958312;28;20462;-72
2023/05/10 06:28:34;;;;;;;9.30;8.50;;;13.80;99.90;;;;;;4958062;29;20453;-71
2023/05/10 06:31:04;;;;;;;8.60;7.80;;;13.90;99.90;;;;;;4956797;29;20454;-71
2023/05/10 06:33:32;;;;;;;8.00;7.20;;;13.90;99.90;;;;;;4958036;28;20498;-72
2023/05/10 06:36:00;;;;;;;6.07;5.43;;;13.90;99.90;;;;;;4958047;29;20490;-72
2023/05/10 06:38:28;;;;;;;6.60;5.90;;;14.00;99.90;;;;;;4958128;29;20979;-72
2023/05/10 06:40:56;;;;;;;7.30;6.40;;;14.00;99.90;;;;;;4958056;29;20497;-71
2023/05/10 06:43:26;;;;;;;6.33;5.47;;;14.00;99.90;;;;;;4958158;29;20450;-72
2023/05/10 06:45:54;;;;;;;5.97;5.20;;;14.10;99.90;;;;;;4958214;29;20876;-72
2023/05/10 06:48:23;;;;;;;5.73;4.93;;;14.10;99.90;;;;;;4956546;29;20457;-71
2023/05/10 06:50:51;;;;;;;7.93;6.07;;;14.10;99.90;;;;;;4957891;29;20446;-71
2023/05/10 06:53:19;;;;;;;7.33;4.97;;;14.20;99.90;;;;;;4956332;29;20948;-72
2023/05/10 06:55:47;;;;;;;6.53;5.87;;;14.20;99.90;;;;;;4956320;29;20471;-71
2023/05/10 06:58:15;;;;;;;6.23;5.40;;;14.20;99.90;;;;;;4957669;28;20481;-72
2023/05/10 07:00:45;;;;;;;6.23;5.63;;;14.20;99.90;;;;;;4957568;28;20852;-72
2023/05/10 07:03:13;;;;;;;6.67;5.50;;;14.30;99.90;;;;;;4957931;29;20442;-72
2023/05/10 07:05:42;;;;;;;7.40;6.60;;;14.30;99.90;;;;;;4962249;28;20473;-71
2023/05/10 07:08:10;;;;;;;7.30;6.50;;;14.30;99.90;;;;;;4957974;29;20545;-71
2023/05/10 07:10:38;;;;;;;7.83;7.03;;;14.30;99.90;;;;;;4957848;29;20807;-71
2023/05/10 07:13:06;;;;;;;7.80;7.00;;;14.30;99.90;;;;;;4957781;29;20447;-71
2023/05/10 07:15:35;;;;;;;8.00;7.07;;;14.30;99.90;;;;;;4956438;29;20498;-71
2023/05/10 07:18:04;;;;;;;7.20;6.50;;;14.30;99.90;;;;;;4957505;29;20501;-71
2023/05/10 07:20:32;;;;;;;7.63;6.90;;;14.30;99.90;;;;;;4956075;28;20478;-71
2023/05/10 07:23:02;;;;;;;7.93;7.13;;;14.40;99.90;;;;;;4957698;29;20435;-71
2023/05/10 07:25:30;;;;;;;7.87;7.07;;;14.40;99.90;;;;;;4956061;29;20978;-71
2023/05/10 07:27:58;;;;;;;8.60;7.80;;;14.40;99.90;;;;;;4957265;29;20438;-71
2023/05/10 07:30:26;;;;;;;8.53;7.63;;;14.40;99.90;;;;;;4957206;29;20438;-71
2023/05/10 07:32:54;;;;;;;9.37;7.97;;;14.40;99.90;;;;;;4957438;28;20405;-71
2023/05/10 07:35:22;;;;;;;8.13;7.33;;;14.50;99.90;;;;;;4957586;29;20467;-71
2023/05/10 07:37:50;;;;;;;9.20;8.30;;;14.40;99.90;;;;;;4957243;29;20932;-71
2023/05/10 07:40:20;;;;;;;8.20;7.37;;;14.50;99.90;;;;;;4955758;29;20489;-71
2023/05/10 07:42:48;;;;;;;7.63;6.93;;;14.50;99.90;;;;;;4957058;29;20446;-71
2023/05/10 07:45:16;;;;;;;9.07;7.93;;;14.50;99.90;;;;;;4956879;29;20469;-71
2023/05/10 07:47:44;;;;;;;9.40;8.40;;;14.50;99.90;;;;;;4957138;28;20446;-71
2023/05/10 07:50:13;;;;;;;7.80;7.00;;;14.50;99.90;;;;;;4955568;29;20901;-71
2023/05/10 07:52:41;;;;;;;8.10;7.30;;;14.60;99.90;;;;;;4956834;29;20458;-71
2023/05/10 07:55:10;;;;;;;7.73;7.00;;;14.60;99.90;;;;;;4955555;29;20481;-71
2023/05/10 07:57:39;;;;;;;7.40;6.70;;;14.70;99.90;;;;;;4957330;28;20798;-71
2023/05/10 08:00:09;;;;;;;8.43;7.63;;;14.70;99.90;;;;;;4956480;29;20474;-72
2023/05/10 08:02:42;;;;;;;7.90;6.87;;;14.70;99.90;;;;;;4957070;29;20422;-72
2023/05/10 08:05:11;;;;;;;8.47;7.57;;;14.70;99.90;;;;;;4956954;28;20852;-72
2023/05/10 08:07:39;;;;;;;8.10;7.30;;;14.80;99.90;;;;;;4955263;29;20501;-71
2023/05/10 08:10:09;;;;;;;8.37;7.57;;;14.90;99.90;;;;;;4956879;29;20438;-72
2023/05/10 08:12:38;;;;;;;8.07;7.30;;;14.90;99.90;;;;;;4956901;28;20417;-71
2023/05/10 08:15:07;;;;;;;8.30;7.50;;;14.90;99.90;;;;;;4955317;29;20474;-72
2023/05/10 08:17:35;;;;;;;8.73;7.40;;;15.00;99.90;;;;;;4956449;28;20439;-71
2023/05/10 08:20:04;;;;;;;8.53;7.70;;;15.00;99.90;;;;;;4956322;28;21036;-71
2023/05/10 08:22:32;;;;;;;8.97;8.07;;;15.00;99.90;;;;;;4954893;29;20940;-71
2023/05/10 08:25:00;;;;;;;9.83;8.83;;;15.00;99.90;;;;;;4957071;28;20875;-71
2023/05/10 08:27:28;;;;;;;10.00;9.10;;;15.00;99.90;;;;;;4955994;29;20439;-71
2023/05/10 08:29:58;;;;;;;8.33;7.53;;;15.00;99.90;;;;;;4954867;29;20446;-71
2023/05/10 08:32:25;;;;;;;9.23;8.27;;;15.00;99.90;;;;;;4955858;28;21011;-71
2023/05/10 08:34:54;;;;;;;9.00;8.20;;;15.10;99.90;;;;;;4956087;29;20524;-72
2023/05/10 08:37:22;;;;;;;6.80;6.07;;;15.20;99.90;;;;;;4955917;29;20438;-72
2023/05/10 08:39:50;;;;;;;5.30;4.50;;;15.30;99.90;;;;;;4955938;29;20481;-72
2023/05/10 08:42:23;;;;;;;7.47;4.20;;;15.40;99.90;;;;;;4955914;29;20497;-72
2023/05/10 08:44:52;;;;;;;5.00;4.10;;;15.40;99.90;;;;;;4956009;28;20531;-72
2023/05/10 08:47:22;;;;;;;5.87;4.20;;;15.40;99.90;;;;;;4957138;29;20481;-72
2023/05/10 08:49:51;;;;;;;4.80;4.30;;;15.40;99.90;;;;;;4956949;28;20808;-72
2023/05/10 08:52:19;;;;;;;5.57;4.80;;;15.40;99.90;;;;;;4954628;29;20429;-72
2023/05/10 08:54:48;;;;;;;5.60;4.30;;;15.40;99.90;;;;;;4955902;28;20502;-72
2023/05/10 08:57:16;;;;;;;5.23;4.60;;;15.40;99.90;;;;;;4955748;29;20442;-72
2023/05/10 08:59:45;;;;;;;6.10;5.03;;;15.40;99.90;;;;;;4956183;29;20471;-72
2023/05/10 09:02:14;;;;;;;5.53;4.30;;;15.40;99.90;;;;;;4954576;29;20425;-72
2023/05/10 09:04:46;;;;;;;6.00;4.77;;;15.50;99.90;;;;;;4956166;29;20459;-72
2023/05/10 09:07:15;;;;;;;6.10;5.30;;;15.50;99.90;;;;;;4955219;29;20982;-71
2023/05/10 09:09:44;;;;;;;6.90;6.20;;;15.50;99.90;;;;;;4956951;29;20439;-72
2023/05/10 09:12:15;;;;;;;7.10;5.60;;;15.50;99.90;;;;;;4957080;29;20413;-72
2023/05/10 09:14:45;;;;;;;6.47;5.87;;;15.50;99.90;;;;;;4954578;29;20470;-73
2023/05/10 09:17:14;;;;;;;7.40;6.70;;;15.50;99.90;;;;;;4958661;29;20442;-72
2023/05/10 09:19:42;;;;;;;8.27;7.47;;;15.50;99.90;;;;;;4957366;29;20472;-72
2023/05/10 09:22:11;;;;;;;9.20;8.30;;;15.50;99.90;;;;;;4956710;28;20819;-73
2023/05/10 09:24:44;;;;;;;9.37;8.43;;;15.50;99.90;;;;;;4958436;29;20501;-72
2023/05/10 09:27:12;;;;;;;9.40;8.50;;;15.50;99.90;;;;;;4957966;29;20431;-72
2023/05/10 09:29:42;;;;;;;10.13;9.13;;;15.50;99.90;;;;;;4957063;28;20489;-72
2023/05/10 09:32:10;;;;;;;9.00;8.20;;;15.50;99.90;;;;;;4957611;28;20956;-71
2023/05/10 09:34:40;;;;;;;9.83;8.93;;;15.50;99.90;;;;;;4957398;29;20441;-71
2023/05/10 09:37:08;;;;;;;10.27;9.27;;;15.60;99.90;;;;;;4957307;28;20421;-71
2023/05/10 09:39:38;;;;;;;10.10;9.20;;;15.60;99.90;;;;;;4957205;28;20446;-71
2023/05/10 09:42:08;;;;;;;10.30;9.30;;;15.60;99.90;;;;;;4957525;29;20400;-71
2023/05/10 09:44:37;;;;;;;8.93;8.13;;;15.60;99.90;;;;;;4955782;28;20544;-71
2023/05/10 09:47:06;;;;;;;10.77;9.77;;;15.60;99.90;;;;;;4961121;29;20439;-71
2023/05/10 09:49:34;;;;;;;8.40;7.60;;;15.60;99.90;;;;;;4961504;28;20474;-71
2023/05/10 09:52:04;;;;;;;10.23;9.33;;;15.60;99.90;;;;;;4960814;29;20442;-71
2023/05/10 09:54:32;;;;;;;11.03;10.07;;;15.60;99.90;;;;;;4960962;28;20494;-71
2023/05/10 09:57:02;;;;;;;10.83;9.77;;;15.50;99.90;;;;;;4960546;29;20440;-71
2023/05/10 09:59:31;;;;;;;9.83;8.90;;;15.50;99.90;;;;;;4960603;29;20490;-71
2023/05/10 10:02:00;;;;;;;7.23;6.53;;;15.50;99.90;;;;;;4959498;29;20474;-70
2023/05/10 10:04:29;;;;;;;7.87;7.17;;;15.60;99.90;;;;;;4959830;29;20425;-71
2023/05/10 10:07:03;;;;;;;6.53;5.70;;;15.60;99.90;;;;;;4960615;28;20855;-71
2023/05/10 10:09:31;;;;;;;7.57;5.30;;;15.80;99.90;;;;;;4960767;29;20422;-71
2023/05/10 10:12:01;;;;;;;5.63;5.10;;;15.90;99.90;;;;;;4959717;29;20450;-72
2023/05/10 10:14:30;;;;;;;6.07;5.13;;;15.90;99.90;;;;;;4960894;29;20468;-72
2023/05/10 10:17:01;;;;;;;6.30;4.63;;;16.00;99.90;;;;;;4960279;28;20417;-72
2023/05/10 10:19:34;;;;;;;5.90;4.70;;;16.00;99.90;;;;;;4961496;29;20929;-72
2023/05/10 10:22:03;;;;;;;6.23;5.37;;;16.10;99.90;;;;;;4959322;29;20513;-72
2023/05/10 10:24:31;;;;;;;7.87;5.50;;;16.10;99.90;;;;;;4960525;28;20532;-72
2023/05/10 10:27:09;;;;;;;6.50;5.60;;;16.20;99.90;;;;;;4959595;28;20442;-72
2023/05/10 10:29:45;;;;;;;6.07;5.43;;;16.30;99.90;;;;;;4960344;29;20401;-73
2023/05/10 10:32:26;;;;;;;6.50;5.70;;;16.40;99.90;;;;;;4960328;28;20856;-72
2023/05/10 10:34:56;;;;;;;6.03;5.43;;;16.40;99.90;;;;;;4961021;28;20468;-71
2023/05/10 10:37:41;;;;;;;5.80;5.20;;;16.50;99.90;;;;;;4960135;28;20439;-71
2023/05/10 10:40:25;;;;;;;6.10;5.30;;;16.60;99.90;;;;;;4961321;28;20408;-72
2023/05/10 10:42:55;;;;;;;6.63;6.00;;;16.70;99.90;;;;;;4963226;28;20422;-71
2023/05/10 10:45:24;;;;;;;8.77;7.87;;;16.70;99.90;;;;;;4960585;29;20505;-71
2023/05/10 10:48:23;;;;;;;8.60;7.90;;;16.70;99.90;;;;;;4959176;28;20438;-71
2023/05/10 10:50:58;;;;;;;7.90;7.10;;;16.70;99.90;;;;;;4959825;28;20397;-71
2023/05/10 10:53:28;;;;;;;8.53;7.80;;;16.70;99.90;;;;;;4959405;28;20423;-72
2023/05/10 10:56:09;;;;;;;8.10;7.47;;;16.70;99.90;;;;;;4958645;28;20462;-71
2023/05/10 10:58:39;;;;;;;8.07;7.37;;;16.80;99.90;;;;;;4959356;29;20948;-72
2023/05/10 11:01:13;;;;;;;8.17;7.37;;;16.80;99.90;;;;;;4959484;29;20437;-71
2023/05/10 11:03:41;;;;;;;7.53;6.93;;;16.80;99.90;;;;;;4959387;28;20757;-71
2023/05/10 11:06:10;;;;;;;7.77;7.17;;;16.80;99.90;;;;;;4959072;29;20966;-71
2023/05/10 11:08:47;;;;;;;8.33;7.53;;;16.80;99.90;;;;;;4959482;28;20413;-71
2023/05/10 11:11:16;;;;;;;7.30;6.70;;;16.80;99.90;;;;;;4959059;28;20404;-71
2023/05/10 11:13:47;;;;;;;7.50;6.80;;;16.90;99.90;;;;;;4958220;29;20429;-71
2023/05/10 11:16:20;;;;;;;7.00;6.37;;;16.90;99.90;;;;;;4958243;29;20416;-71
2023/05/10 11:19:03;;;;;;;5.83;5.33;;;17.00;99.90;;;;;;4959244;28;20841;-71
2023/05/10 11:21:32;;;;;;;5.53;5.13;;;17.00;99.90;;;;;;4959254;29;20527;-71
2023/05/10 11:24:05;;;;;;;5.80;5.30;;;16.90;99.90;;;;;;4958313;28;20420;-71
2023/05/10 11:26:36;;;;;;;4.70;4.30;;;16.90;99.90;;;;;;4958033;29;20412;-71
2023/05/10 11:29:05;;;;;;;3.17;2.30;;;16.90;99.90;;;;;;4958823;29;20390;-71
2023/05/10 11:31:33;;;;;;;3.10;1.70;;;16.80;99.90;;;;;;4957315;28;20442;-72
2023/05/10 11:34:02;;;;;;;3.10;1.60;;;16.80;99.90;;;;;;4955853;29;20449;-71
2023/05/10 11:36:34;;;;;;;2.80;1.33;;;16.70;99.90;;;;;;4957342;29;20965;-72
2023/05/10 11:39:02;;;;;;;2.50;1.07;;;16.60;99.90;;;;;;4957023;28;20398;-72
2023/05/10 11:41:31;;;;;;;2.40;0.90;;;16.50;99.90;;;;;;4955545;29;20958;-72
2023/05/10 11:43:59;;;;;;;2.40;1.00;;;16.50;99.90;;;;;;4956602;29;20421;-72
2023/05/10 11:46:29;;;;;;;3.37;1.10;;;16.50;99.90;;;;;;4956687;29;20418;-72
2023/05/10 11:49:03;;;;;;;3.10;1.40;;;16.50;99.90;;;;;;4957151;29;20413;-72
2023/05/10 11:51:34;;;;;;;2.77;1.40;;;16.60;99.90;;;;;;4955785;29;20799;-72
2023/05/10 11:54:06;;;;;;;2.60;1.10;;;16.60;99.90;;;;;;4955366;29;20453;-72
2023/05/10 11:56:34;;;;;;;2.43;1.07;;;16.60;99.90;;;;;;4956998;29;20912;-72
2023/05/10 11:59:02;;;;;;;2.80;1.43;;;16.60;99.90;;;;;;4956546;28;20439;-71
2023/05/10 12:01:32;;;;;;;3.47;1.30;;;16.60;99.90;;;;;;4955634;29;20449;-71
2023/05/10 12:04:01;;;;;;;3.00;0.83;;;16.60;99.90;;;;;;4958416;29;20426;-72
2023/05/10 12:06:32;;;;;;;2.63;0.93;;;16.50;99.90;;;;;;4958693;29;20512;-72
2023/05/10 12:09:00;;;;;;;2.77;1.17;;;16.50;99.90;;;;;;4957933;28;20393;-71
2023/05/10 12:11:29;;;;;;;2.57;1.23;;;16.50;99.90;;;;;;4957719;29;20418;-71
2023/05/10 12:13:57;;;;;;;2.53;1.07;;;16.50;99.90;;;;;;4957975;28;20764;-72
2023/05/10 12:16:29;;;;;;;2.40;1.10;;;16.50;99.90;;;;;;4955505;29;20847;-72
2023/05/10 12:19:00;;;;;;;2.90;0.90;;;16.50;99.90;;;;;;4956316;29;20424;-71
2023/05/10 12:21:31;;;;;;;2.60;1.13;;;16.50;99.90;;;;;;4957089;28;20456;-72
2023/05/10 12:24:02;;;;;;;2.50;1.20;;;16.50;99.90;;;;;;4956442;28;20423;-72
2023/05/10 12:26:31;;;;;;;3.20;2.00;;;16.50;99.90;;;;;;4955431;29;20831;-72
2023/05/10 12:29:13;;;;;;;3.67;2.13;;;16.40;99.90;;;;;;4956460;28;20934;-72
2023/05/10 12:31:55;;;;;;;3.67;2.53;;;16.40;99.90;;;;;;4955476;29;20484;-73
2023/05/10 12:34:31;;;;;;;4.30;3.40;;;16.40;99.90;;;;;;4955525;29;21008;-72
2023/05/10 12:37:00;;;;;;;4.43;3.90;;;16.30;99.90;;;;;;4956155;28;20437;-71
2023/05/10 12:39:39;;;;;;;5.00;4.13;;;16.40;99.90;;;;;;4956413;28;20417;-71
2023/05/10 12:42:08;;;;;;;5.23;4.30;;;16.40;99.90;;;;;;4956661;29;20437;-72
2023/05/10 12:44:36;;;;;;;5.03;4.53;;;16.40;99.90;;;;;;4956653;28;20470;-72
2023/05/10 12:47:04;;;;;;;5.00;4.50;;;16.40;99.90;;;;;;4956058;29;20421;-71
2023/05/10 12:49:34;;;;;;;6.07;5.00;;;16.50;99.90;;;;;;4956405;29;20442;-71
2023/05/10 12:52:02;;;;;;;6.43;5.73;;;16.50;99.90;;;;;;4956294;29;20420;-71